sensor_id;sensor_type;location;lat;lon;timestamp;P1;durP1;ratioP1;P2;durP2;ratioP2
691;SDS011;70475;50.084;8.576;2023-10-13T00:02:05;13.63;;;6.37;;
691;SDS011;70475;50.084;8.576;2023-10-13T00:04:33;8.10;;;5.10;;
691;SDS011;70475;50.084;8.576;2023-10-13T00:07:03;13.47;;;5.80;;
691;SDS011;70475;50.084;8.576;2023-10-13T00:09:35;11.30;;;6.40;;
691;SDS011;70475;50.084;8.576;2023-10-13T00:12:03;9.60;;;5.63;;
691;SDS011;70475;50.084;8.576;2023-10-13T00:14:34;9.23;;;5.57;;
691;SDS011;70475;50.084;8.576;2023-10-13T00:17:04;14.07;;;6.80;;
691;SDS011;70475;50.084;8.576;2023-10-13T00:19:35;10.37;;;5.47;;
691;SDS011;70475;50.084;8.576;2023-10-13T00:22:12;17.47;;;6.27;;
691;SDS011;70475;50.084;8.576;2023-10-13T00:24:43;9.00;;;5.80;;
691;SDS011;70475;50.084;8.576;2023-10-13T00:27:13;10.50;;;5.70;;
691;SDS011;70475;50.084;8.576;2023-10-13T00:29:57;8.73;;;5.90;;
691;SDS011;70475;50.084;8.576;2023-10-13T00:32:46;9.80;;;6.27;;
691;SDS011;70475;50.084;8.576;2023-10-13T00:35:19;11.67;;;6.00;;
691;SDS011;70475;50.084;8.576;2023-10-13T00:37:52;14.70;;;7.60;;
691;SDS011;70475;50.084;8.576;2023-10-13T00:40:21;11.00;;;5.20;;
691;SDS011;70475;50.084;8.576;2023-10-13T00:43:06;8.17;;;4.83;;
691;SDS011;70475;50.084;8.576;2023-10-13T00:45:48;15.53;;;6.50;;
691;SDS011;70475;50.084;8.576;2023-10-13T00:48:25;14.80;;;6.07;;
691;SDS011;70475;50.084;8.576;2023-10-13T00:50:56;14.30;;;6.40;;
691;SDS011;70475;50.084;8.576;2023-10-13T00:53:25;6.80;;;5.77;;
691;SDS011;70475;50.084;8.576;2023-10-13T00:55:52;13.43;;;6.40;;
691;SDS011;70475;50.084;8.576;2023-10-13T00:58:22;9.87;;;5.30;;
691;SDS011;70475;50.084;8.576;2023-10-13T01:00:51;8.87;;;4.77;;
691;SDS011;70475;50.084;8.576;2023-10-13T01:03:28;9.80;;;5.50;;
691;SDS011;70475;50.084;8.576;2023-10-13T01:05:57;10.40;;;4.80;;
691;SDS011;70475;50.084;8.576;2023-10-13T01:08:31;11.60;;;5.83;;
691;SDS011;70475;50.084;8.576;2023-10-13T01:11:00;6.63;;;4.57;;
691;SDS011;70475;50.084;8.576;2023-10-13T01:13:28;5.80;;;4.83;;
691;SDS011;70475;50.084;8.576;2023-10-13T01:15:57;8.67;;;5.47;;
691;SDS011;70475;50.084;8.576;2023-10-13T01:18:29;12.13;;;5.60;;
691;SDS011;70475;50.084;8.576;2023-10-13T01:20:56;7.00;;;5.23;;
691;SDS011;70475;50.084;8.576;2023-10-13T01:23:27;13.20;;;6.13;;
691;SDS011;70475;50.084;8.576;2023-10-13T01:25:54;8.70;;;5.33;;
691;SDS011;70475;50.084;8.576;2023-10-13T01:28:23;6.77;;;4.57;;
691;SDS011;70475;50.084;8.576;2023-10-13T01:30:51;8.00;;;4.67;;
691;SDS011;70475;50.084;8.576;2023-10-13T01:33:19;8.10;;;5.37;;
691;SDS011;70475;50.084;8.576;2023-10-13T01:35:52;8.00;;;5.40;;
691;SDS011;70475;50.084;8.576;2023-10-13T01:38:21;8.53;;;4.70;;
691;SDS011;70475;50.084;8.576;2023-10-13T01:40:50;8.80;;;5.17;;
691;SDS011;70475;50.084;8.576;2023-10-13T01:43:17;12.17;;;5.43;;
691;SDS011;70475;50.084;8.576;2023-10-13T01:45:45;8.97;;;5.37;;
691;SDS011;70475;50.084;8.576;2023-10-13T01:48:16;9.97;;;5.60;;
691;SDS011;70475;50.084;8.576;2023-10-13T01:50:47;9.87;;;5.70;;
691;SDS011;70475;50.084;8.576;2023-10-13T01:53:19;10.77;;;5.80;;
691;SDS011;70475;50.084;8.576;2023-10-13T01:55:46;10.63;;;6.00;;
691;SDS011;70475;50.084;8.576;2023-10-13T01:58:14;7.23;;;5.13;;
691;SDS011;70475;50.084;8.576;2023-10-13T02:00:43;8.30;;;4.97;;
691;SDS011;70475;50.084;8.576;2023-10-13T02:03:10;6.23;;;5.00;;
691;SDS011;70475;50.084;8.576;2023-10-13T02:05:42;7.77;;;5.60;;
691;SDS011;70475;50.084;8.576;2023-10-13T02:08:13;7.33;;;4.70;;
691;SDS011;70475;50.084;8.576;2023-10-13T02:10:45;11.17;;;5.47;;
691;SDS011;70475;50.084;8.576;2023-10-13T02:13:12;10.20;;;4.60;;
691;SDS011;70475;50.084;8.576;2023-10-13T02:15:45;8.13;;;5.53;;
691;SDS011;70475;50.084;8.576;2023-10-13T02:18:15;7.77;;;4.97;;
691;SDS011;70475;50.084;8.576;2023-10-13T02:20:47;8.60;;;5.00;;
691;SDS011;70475;50.084;8.576;2023-10-13T02:23:23;8.33;;;5.27;;
691;SDS011;70475;50.084;8.576;2023-10-13T02:25:51;7.80;;;4.30;;
691;SDS011;70475;50.084;8.576;2023-10-13T02:28:27;4.60;;;3.70;;
691;SDS011;70475;50.084;8.576;2023-10-13T02:31:01;10.50;;;5.13;;
691;SDS011;70475;50.084;8.576;2023-10-13T02:33:29;5.93;;;4.63;;
691;SDS011;70475;50.084;8.576;2023-10-13T02:35:58;8.53;;;5.33;;
691;SDS011;70475;50.084;8.576;2023-10-13T02:38:25;7.33;;;5.53;;
691;SDS011;70475;50.084;8.576;2023-10-13T02:40:59;7.00;;;4.60;;
691;SDS011;70475;50.084;8.576;2023-10-13T02:43:34;7.07;;;5.13;;
691;SDS011;70475;50.084;8.576;2023-10-13T02:46:02;11.13;;;4.73;;
691;SDS011;70475;50.084;8.576;2023-10-13T02:48:29;7.27;;;5.90;;
691;SDS011;70475;50.084;8.576;2023-10-13T02:51:06;11.47;;;4.37;;
691;SDS011;70475;50.084;8.576;2023-10-13T02:53:42;6.60;;;4.20;;
691;SDS011;70475;50.084;8.576;2023-10-13T02:56:22;14.73;;;6.83;;
691;SDS011;70475;50.084;8.576;2023-10-13T02:58:51;8.70;;;5.57;;
691;SDS011;70475;50.084;8.576;2023-10-13T03:01:20;6.63;;;5.67;;
691;SDS011;70475;50.084;8.576;2023-10-13T03:03:54;8.43;;;4.40;;
691;SDS011;70475;50.084;8.576;2023-10-13T03:06:22;6.60;;;5.50;;
691;SDS011;70475;50.084;8.576;2023-10-13T03:08:59;9.10;;;5.47;;
691;SDS011;70475;50.084;8.576;2023-10-13T03:11:39;6.90;;;5.63;;
691;SDS011;70475;50.084;8.576;2023-10-13T03:14:12;11.47;;;5.50;;
691;SDS011;70475;50.084;8.576;2023-10-13T03:16:51;7.27;;;4.70;;
691;SDS011;70475;50.084;8.576;2023-10-13T03:19:19;5.30;;;4.60;;
691;SDS011;70475;50.084;8.576;2023-10-13T03:21:48;6.13;;;5.03;;
691;SDS011;70475;50.084;8.576;2023-10-13T03:24:21;7.30;;;5.73;;
691;SDS011;70475;50.084;8.576;2023-10-13T03:26:59;11.37;;;5.27;;
691;SDS011;70475;50.084;8.576;2023-10-13T03:29:35;7.80;;;4.67;;
691;SDS011;70475;50.084;8.576;2023-10-13T03:32:03;8.40;;;5.70;;
691;SDS011;70475;50.084;8.576;2023-10-13T03:34:38;9.80;;;5.97;;
691;SDS011;70475;50.084;8.576;2023-10-13T03:37:19;9.23;;;6.00;;
691;SDS011;70475;50.084;8.576;2023-10-13T03:40:04;5.93;;;3.80;;
691;SDS011;70475;50.084;8.576;2023-10-13T03:42:42;6.90;;;4.37;;
691;SDS011;70475;50.084;8.576;2023-10-13T03:45:17;6.23;;;4.33;;
691;SDS011;70475;50.084;8.576;2023-10-13T03:47:45;8.90;;;5.07;;
691;SDS011;70475;50.084;8.576;2023-10-13T03:50:12;9.23;;;5.40;;
691;SDS011;70475;50.084;8.576;2023-10-13T03:52:42;10.07;;;5.13;;
691;SDS011;70475;50.084;8.576;2023-10-13T03:55:11;8.40;;;5.63;;
691;SDS011;70475;50.084;8.576;2023-10-13T03:57:44;11.17;;;6.27;;
691;SDS011;70475;50.084;8.576;2023-10-13T04:00:17;8.93;;;5.90;;
691;SDS011;70475;50.084;8.576;2023-10-13T04:02:51;12.23;;;6.70;;
691;SDS011;70475;50.084;8.576;2023-10-13T04:05:33;10.17;;;7.43;;
691;SDS011;70475;50.084;8.576;2023-10-13T04:08:11;15.27;;;8.53;;
691;SDS011;70475;50.084;8.576;2023-10-13T04:10:56;11.57;;;7.60;;
691;SDS011;70475;50.084;8.576;2023-10-13T04:13:42;8.40;;;7.00;;
691;SDS011;70475;50.084;8.576;2023-10-13T04:16:29;9.63;;;6.77;;
691;SDS011;70475;50.084;8.576;2023-10-13T04:19:04;9.50;;;6.63;;
691;SDS011;70475;50.084;8.576;2023-10-13T04:21:36;10.50;;;7.60;;
691;SDS011;70475;50.084;8.576;2023-10-13T04:24:09;17.67;;;6.63;;
691;SDS011;70475;50.084;8.576;2023-10-13T04:26:54;14.77;;;6.50;;
691;SDS011;70475;50.084;8.576;2023-10-13T04:29:40;12.43;;;7.83;;
691;SDS011;70475;50.084;8.576;2023-10-13T04:32:19;11.83;;;8.03;;
691;SDS011;70475;50.084;8.576;2023-10-13T04:34:56;14.00;;;7.67;;
691;SDS011;70475;50.084;8.576;2023-10-13T04:37:34;8.60;;;6.50;;
691;SDS011;70475;50.084;8.576;2023-10-13T04:40:14;12.60;;;7.17;;
691;SDS011;70475;50.084;8.576;2023-10-13T04:42:46;9.30;;;7.07;;
691;SDS011;70475;50.084;8.576;2023-10-13T04:45:16;12.90;;;7.73;;
691;SDS011;70475;50.084;8.576;2023-10-13T04:48:06;16.93;;;8.30;;
691;SDS011;70475;50.084;8.576;2023-10-13T04:50:58;10.00;;;6.50;;
691;SDS011;70475;50.084;8.576;2023-10-13T04:53:41;12.40;;;7.10;;
691;SDS011;70475;50.084;8.576;2023-10-13T04:56:22;11.47;;;8.50;;
691;SDS011;70475;50.084;8.576;2023-10-13T04:59:04;9.33;;;5.93;;
691;SDS011;70475;50.084;8.576;2023-10-13T05:01:44;9.10;;;6.20;;
691;SDS011;70475;50.084;8.576;2023-10-13T05:04:31;16.13;;;7.23;;
691;SDS011;70475;50.084;8.576;2023-10-13T05:07:25;10.43;;;7.20;;
691;SDS011;70475;50.084;8.576;2023-10-13T05:10:10;8.80;;;7.23;;
691;SDS011;70475;50.084;8.576;2023-10-13T05:12:56;8.97;;;7.00;;
691;SDS011;70475;50.084;8.576;2023-10-13T05:15:56;11.20;;;6.00;;
691;SDS011;70475;50.084;8.576;2023-10-13T05:18:41;11.77;;;6.80;;
691;SDS011;70475;50.084;8.576;2023-10-13T05:21:27;10.40;;;6.87;;
691;SDS011;70475;50.084;8.576;2023-10-13T05:24:13;14.47;;;5.63;;
691;SDS011;70475;50.084;8.576;2023-10-13T05:26:58;10.70;;;6.60;;
691;SDS011;70475;50.084;8.576;2023-10-13T05:29:44;13.83;;;5.93;;
691;SDS011;70475;50.084;8.576;2023-10-13T05:32:30;8.77;;;6.60;;
691;SDS011;70475;50.084;8.576;2023-10-13T05:35:15;14.20;;;7.60;;
691;SDS011;70475;50.084;8.576;2023-10-13T05:38:03;9.70;;;7.03;;
691;SDS011;70475;50.084;8.576;2023-10-13T05:40:51;11.30;;;5.40;;
691;SDS011;70475;50.084;8.576;2023-10-13T05:43:36;11.23;;;7.50;;
691;SDS011;70475;50.084;8.576;2023-10-13T05:46:22;10.20;;;6.63;;
691;SDS011;70475;50.084;8.576;2023-10-13T05:49:15;12.40;;;7.17;;
691;SDS011;70475;50.084;8.576;2023-10-13T05:52:06;14.87;;;6.40;;
691;SDS011;70475;50.084;8.576;2023-10-13T05:54:47;11.50;;;6.97;;
691;SDS011;70475;50.084;8.576;2023-10-13T05:57:46;11.27;;;5.87;;
691;SDS011;70475;50.084;8.576;2023-10-13T06:00:37;10.63;;;7.07;;
691;SDS011;70475;50.084;8.576;2023-10-13T06:03:23;11.30;;;6.87;;
691;SDS011;70475;50.084;8.576;2023-10-13T06:06:08;11.00;;;6.20;;
691;SDS011;70475;50.084;8.576;2023-10-13T06:08:54;9.87;;;6.80;;
691;SDS011;70475;50.084;8.576;2023-10-13T06:11:41;14.33;;;7.70;;
691;SDS011;70475;50.084;8.576;2023-10-13T06:14:26;11.60;;;7.00;;
691;SDS011;70475;50.084;8.576;2023-10-13T06:17:11;8.47;;;5.80;;
691;SDS011;70475;50.084;8.576;2023-10-13T06:19:56;8.10;;;5.83;;
691;SDS011;70475;50.084;8.576;2023-10-13T06:22:42;11.73;;;7.70;;
691;SDS011;70475;50.084;8.576;2023-10-13T06:25:27;10.40;;;5.10;;
691;SDS011;70475;50.084;8.576;2023-10-13T06:28:14;10.13;;;6.20;;
691;SDS011;70475;50.084;8.576;2023-10-13T06:30:59;11.50;;;6.27;;
691;SDS011;70475;50.084;8.576;2023-10-13T06:33:28;9.93;;;5.93;;
691;SDS011;70475;50.084;8.576;2023-10-13T06:36:00;9.50;;;5.87;;
691;SDS011;70475;50.084;8.576;2023-10-13T06:38:29;8.93;;;6.30;;
691;SDS011;70475;50.084;8.576;2023-10-13T06:41:02;17.03;;;6.77;;
691;SDS011;70475;50.084;8.576;2023-10-13T06:43:33;7.80;;;5.80;;
691;SDS011;70475;50.084;8.576;2023-10-13T06:46:05;9.47;;;6.50;;
691;SDS011;70475;50.084;8.576;2023-10-13T06:48:40;11.00;;;7.30;;
691;SDS011;70475;50.084;8.576;2023-10-13T06:51:09;12.30;;;6.87;;
691;SDS011;70475;50.084;8.576;2023-10-13T06:53:44;15.43;;;7.27;;
691;SDS011;70475;50.084;8.576;2023-10-13T06:56:14;15.87;;;7.90;;
691;SDS011;70475;50.084;8.576;2023-10-13T06:58:50;11.70;;;5.67;;
691;SDS011;70475;50.084;8.576;2023-10-13T07:01:17;15.57;;;7.10;;
691;SDS011;70475;50.084;8.576;2023-10-13T07:03:48;12.17;;;6.73;;
691;SDS011;70475;50.084;8.576;2023-10-13T07:06:19;18.27;;;7.83;;
691;SDS011;70475;50.084;8.576;2023-10-13T07:08:47;9.30;;;6.83;;
691;SDS011;70475;50.084;8.576;2023-10-13T07:11:19;9.97;;;6.67;;
691;SDS011;70475;50.084;8.576;2023-10-13T07:14:01;11.07;;;6.63;;
691;SDS011;70475;50.084;8.576;2023-10-13T07:16:42;12.20;;;6.63;;
691;SDS011;70475;50.084;8.576;2023-10-13T07:19:13;13.17;;;6.30;;
691;SDS011;70475;50.084;8.576;2023-10-13T07:21:46;11.33;;;7.23;;
691;SDS011;70475;50.084;8.576;2023-10-13T07:24:14;9.33;;;5.77;;
691;SDS011;70475;50.084;8.576;2023-10-13T07:26:42;12.53;;;6.67;;
691;SDS011;70475;50.084;8.576;2023-10-13T07:29:13;10.20;;;5.73;;
691;SDS011;70475;50.084;8.576;2023-10-13T07:31:41;8.17;;;5.37;;
691;SDS011;70475;50.084;8.576;2023-10-13T07:34:11;8.80;;;5.87;;
691;SDS011;70475;50.084;8.576;2023-10-13T07:36:52;10.17;;;5.43;;
691;SDS011;70475;50.084;8.576;2023-10-13T07:39:21;13.23;;;5.90;;
691;SDS011;70475;50.084;8.576;2023-10-13T07:41:50;9.77;;;6.03;;
691;SDS011;70475;50.084;8.576;2023-10-13T07:44:22;7.70;;;5.77;;
691;SDS011;70475;50.084;8.576;2023-10-13T07:46:55;16.90;;;6.60;;
691;SDS011;70475;50.084;8.576;2023-10-13T07:49:28;14.43;;;5.20;;
691;SDS011;70475;50.084;8.576;2023-10-13T07:51:58;10.53;;;5.93;;
691;SDS011;70475;50.084;8.576;2023-10-13T07:54:36;8.00;;;5.57;;
691;SDS011;70475;50.084;8.576;2023-10-13T07:57:06;8.80;;;5.57;;
691;SDS011;70475;50.084;8.576;2023-10-13T07:59:35;9.93;;;6.13;;
691;SDS011;70475;50.084;8.576;2023-10-13T08:02:13;9.53;;;6.10;;
691;SDS011;70475;50.084;8.576;2023-10-13T08:04:41;11.17;;;6.00;;
691;SDS011;70475;50.084;8.576;2023-10-13T08:07:09;8.10;;;5.83;;
691;SDS011;70475;50.084;8.576;2023-10-13T08:09:40;8.67;;;4.57;;
691;SDS011;70475;50.084;8.576;2023-10-13T08:12:17;5.70;;;4.57;;
691;SDS011;70475;50.084;8.576;2023-10-13T08:14:49;9.00;;;4.80;;
691;SDS011;70475;50.084;8.576;2023-10-13T08:17:35;10.43;;;4.70;;
691;SDS011;70475;50.084;8.576;2023-10-13T08:20:03;5.93;;;4.40;;
691;SDS011;70475;50.084;8.576;2023-10-13T08:22:38;10.13;;;5.63;;
691;SDS011;70475;50.084;8.576;2023-10-13T08:25:13;6.33;;;4.20;;
691;SDS011;70475;50.084;8.576;2023-10-13T08:27:51;8.07;;;4.53;;
691;SDS011;70475;50.084;8.576;2023-10-13T08:30:37;6.77;;;5.30;;
691;SDS011;70475;50.084;8.576;2023-10-13T08:33:19;9.93;;;4.70;;
691;SDS011;70475;50.084;8.576;2023-10-13T08:35:51;9.63;;;5.10;;
691;SDS011;70475;50.084;8.576;2023-10-13T08:38:54;6.90;;;3.67;;
691;SDS011;70475;50.084;8.576;2023-10-13T08:41:22;5.90;;;4.20;;
691;SDS011;70475;50.084;8.576;2023-10-13T08:43:58;6.80;;;4.30;;
691;SDS011;70475;50.084;8.576;2023-10-13T08:46:31;13.50;;;4.90;;
691;SDS011;70475;50.084;8.576;2023-10-13T08:49:26;7.73;;;3.83;;
691;SDS011;70475;50.084;8.576;2023-10-13T08:51:55;5.47;;;3.80;;
691;SDS011;70475;50.084;8.576;2023-10-13T08:54:33;9.03;;;4.83;;
691;SDS011;70475;50.084;8.576;2023-10-13T08:57:05;9.23;;;4.47;;
691;SDS011;70475;50.084;8.576;2023-10-13T08:59:46;9.20;;;4.00;;
691;SDS011;70475;50.084;8.576;2023-10-13T09:02:22;4.80;;;3.63;;
691;SDS011;70475;50.084;8.576;2023-10-13T09:05:09;8.37;;;4.33;;
691;SDS011;70475;50.084;8.576;2023-10-13T09:07:58;7.87;;;5.33;;
691;SDS011;70475;50.084;8.576;2023-10-13T09:10:35;4.33;;;3.47;;
691;SDS011;70475;50.084;8.576;2023-10-13T09:13:15;5.60;;;3.50;;
691;SDS011;70475;50.084;8.576;2023-10-13T09:15:47;6.63;;;3.83;;
691;SDS011;70475;50.084;8.576;2023-10-13T09:18:29;6.83;;;3.80;;
691;SDS011;70475;50.084;8.576;2023-10-13T09:21:15;9.33;;;3.40;;
691;SDS011;70475;50.084;8.576;2023-10-13T09:24:00;6.40;;;4.17;;
691;SDS011;70475;50.084;8.576;2023-10-13T09:26:41;4.67;;;3.70;;
691;SDS011;70475;50.084;8.576;2023-10-13T09:29:19;8.77;;;3.50;;
691;SDS011;70475;50.084;8.576;2023-10-13T09:31:48;5.67;;;4.17;;
691;SDS011;70475;50.084;8.576;2023-10-13T09:34:27;6.17;;;4.20;;
691;SDS011;70475;50.084;8.576;2023-10-13T09:36:58;6.73;;;4.13;;
691;SDS011;70475;50.084;8.576;2023-10-13T09:39:25;10.30;;;4.60;;
691;SDS011;70475;50.084;8.576;2023-10-13T09:42:11;5.63;;;3.40;;
691;SDS011;70475;50.084;8.576;2023-10-13T09:44:42;4.07;;;2.80;;
691;SDS011;70475;50.084;8.576;2023-10-13T09:47:16;4.77;;;3.00;;
691;SDS011;70475;50.084;8.576;2023-10-13T09:49:59;5.50;;;3.63;;
691;SDS011;70475;50.084;8.576;2023-10-13T09:52:31;6.27;;;3.23;;
691;SDS011;70475;50.084;8.576;2023-10-13T09:55:09;7.30;;;4.83;;
691;SDS011;70475;50.084;8.576;2023-10-13T09:57:45;10.20;;;4.83;;
691;SDS011;70475;50.084;8.576;2023-10-13T10:00:24;6.77;;;4.00;;
691;SDS011;70475;50.084;8.576;2023-10-13T10:03:13;7.43;;;3.40;;
691;SDS011;70475;50.084;8.576;2023-10-13T10:05:58;4.37;;;3.00;;
691;SDS011;70475;50.084;8.576;2023-10-13T10:08:33;6.50;;;3.63;;
691;SDS011;70475;50.084;8.576;2023-10-13T10:11:16;6.43;;;3.73;;
691;SDS011;70475;50.084;8.576;2023-10-13T10:13:52;6.20;;;3.70;;
691;SDS011;70475;50.084;8.576;2023-10-13T10:16:29;19.10;;;5.23;;
691;SDS011;70475;50.084;8.576;2023-10-13T10:19:13;10.40;;;3.97;;
691;SDS011;70475;50.084;8.576;2023-10-13T10:21:42;8.97;;;4.23;;
691;SDS011;70475;50.084;8.576;2023-10-13T10:24:13;6.20;;;3.53;;
691;SDS011;70475;50.084;8.576;2023-10-13T10:26:50;5.80;;;3.60;;
691;SDS011;70475;50.084;8.576;2023-10-13T10:29:19;5.33;;;3.43;;
691;SDS011;70475;50.084;8.576;2023-10-13T10:31:46;5.03;;;3.70;;
691;SDS011;70475;50.084;8.576;2023-10-13T10:34:14;7.00;;;3.80;;
691;SDS011;70475;50.084;8.576;2023-10-13T10:36:47;7.20;;;3.90;;
691;SDS011;70475;50.084;8.576;2023-10-13T10:39:20;6.33;;;3.47;;
691;SDS011;70475;50.084;8.576;2023-10-13T10:42:07;7.00;;;4.70;;
691;SDS011;70475;50.084;8.576;2023-10-13T10:44:41;6.13;;;3.53;;
691;SDS011;70475;50.084;8.576;2023-10-13T10:47:11;6.20;;;3.20;;
691;SDS011;70475;50.084;8.576;2023-10-13T10:49:46;5.67;;;3.80;;
691;SDS011;70475;50.084;8.576;2023-10-13T10:52:17;5.03;;;3.10;;
691;SDS011;70475;50.084;8.576;2023-10-13T10:54:57;4.87;;;3.30;;
691;SDS011;70475;50.084;8.576;2023-10-13T10:57:25;5.10;;;2.63;;
691;SDS011;70475;50.084;8.576;2023-10-13T10:59:59;5.90;;;3.73;;
691;SDS011;70475;50.084;8.576;2023-10-13T11:02:37;6.30;;;3.20;;
691;SDS011;70475;50.084;8.576;2023-10-13T11:05:05;4.60;;;3.43;;
691;SDS011;70475;50.084;8.576;2023-10-13T11:07:37;8.40;;;3.93;;
691;SDS011;70475;50.084;8.576;2023-10-13T11:10:16;5.13;;;3.27;;
691;SDS011;70475;50.084;8.576;2023-10-13T11:12:53;3.70;;;3.10;;
691;SDS011;70475;50.084;8.576;2023-10-13T11:15:22;6.80;;;3.77;;
691;SDS011;70475;50.084;8.576;2023-10-13T11:17:59;5.70;;;3.63;;
691;SDS011;70475;50.084;8.576;2023-10-13T11:20:26;6.37;;;3.40;;
691;SDS011;70475;50.084;8.576;2023-10-13T11:23:01;7.00;;;4.13;;
691;SDS011;70475;50.084;8.576;2023-10-13T11:25:31;6.80;;;3.37;;
691;SDS011;70475;50.084;8.576;2023-10-13T11:28:09;6.10;;;4.57;;
691;SDS011;70475;50.084;8.576;2023-10-13T11:30:43;4.53;;;3.37;;
691;SDS011;70475;50.084;8.576;2023-10-13T11:33:16;5.30;;;3.90;;
691;SDS011;70475;50.084;8.576;2023-10-13T11:35:47;3.23;;;2.90;;
691;SDS011;70475;50.084;8.576;2023-10-13T11:38:26;4.00;;;3.40;;
691;SDS011;70475;50.084;8.576;2023-10-13T11:40:55;3.80;;;2.70;;
691;SDS011;70475;50.084;8.576;2023-10-13T11:43:35;4.30;;;2.90;;
691;SDS011;70475;50.084;8.576;2023-10-13T11:46:19;5.23;;;3.10;;
691;SDS011;70475;50.084;8.576;2023-10-13T11:49:02;7.80;;;3.27;;
691;SDS011;70475;50.084;8.576;2023-10-13T11:51:44;4.90;;;3.50;;
691;SDS011;70475;50.084;8.576;2023-10-13T11:54:14;6.03;;;3.33;;
691;SDS011;70475;50.084;8.576;2023-10-13T11:56:44;4.30;;;3.40;;
691;SDS011;70475;50.084;8.576;2023-10-13T11:59:12;6.23;;;2.77;;
691;SDS011;70475;50.084;8.576;2023-10-13T12:01:44;4.13;;;3.40;;
691;SDS011;70475;50.084;8.576;2023-10-13T12:04:29;4.83;;;3.37;;
691;SDS011;70475;50.084;8.576;2023-10-13T12:07:01;4.63;;;3.17;;
691;SDS011;70475;50.084;8.576;2023-10-13T12:09:42;3.70;;;3.00;;
691;SDS011;70475;50.084;8.576;2023-10-13T12:12:19;5.23;;;3.23;;
691;SDS011;70475;50.084;8.576;2023-10-13T12:14:46;4.87;;;2.80;;
691;SDS011;70475;50.084;8.576;2023-10-13T12:17:21;6.30;;;3.80;;
691;SDS011;70475;50.084;8.576;2023-10-13T12:19:54;4.43;;;3.20;;
691;SDS011;70475;50.084;8.576;2023-10-13T12:22:23;5.50;;;3.60;;
691;SDS011;70475;50.084;8.576;2023-10-13T12:24:56;8.20;;;3.50;;
691;SDS011;70475;50.084;8.576;2023-10-13T12:27:23;5.77;;;3.43;;
691;SDS011;70475;50.084;8.576;2023-10-13T12:30:01;3.90;;;2.83;;
691;SDS011;70475;50.084;8.576;2023-10-13T12:32:34;4.00;;;2.73;;
691;SDS011;70475;50.084;8.576;2023-10-13T12:35:01;3.63;;;3.33;;
691;SDS011;70475;50.084;8.576;2023-10-13T12:37:43;7.77;;;3.53;;
691;SDS011;70475;50.084;8.576;2023-10-13T12:40:18;4.90;;;3.33;;
691;SDS011;70475;50.084;8.576;2023-10-13T12:43:04;4.70;;;3.50;;
691;SDS011;70475;50.084;8.576;2023-10-13T12:45:50;6.10;;;3.57;;
691;SDS011;70475;50.084;8.576;2023-10-13T12:48:36;3.40;;;2.70;;
691;SDS011;70475;50.084;8.576;2023-10-13T12:51:24;4.03;;;3.00;;
691;SDS011;70475;50.084;8.576;2023-10-13T12:54:06;6.90;;;3.20;;
691;SDS011;70475;50.084;8.576;2023-10-13T12:56:44;5.63;;;3.00;;
691;SDS011;70475;50.084;8.576;2023-10-13T12:59:11;7.80;;;3.60;;
691;SDS011;70475;50.084;8.576;2023-10-13T13:01:40;5.63;;;3.60;;
691;SDS011;70475;50.084;8.576;2023-10-13T13:04:09;4.63;;;3.20;;
691;SDS011;70475;50.084;8.576;2023-10-13T13:06:45;5.60;;;3.17;;
691;SDS011;70475;50.084;8.576;2023-10-13T13:09:13;5.37;;;3.10;;
691;SDS011;70475;50.084;8.576;2023-10-13T13:11:40;3.83;;;3.43;;
691;SDS011;70475;50.084;8.576;2023-10-13T13:14:09;3.70;;;3.03;;
691;SDS011;70475;50.084;8.576;2023-10-13T13:16:37;8.77;;;4.33;;
691;SDS011;70475;50.084;8.576;2023-10-13T13:19:05;7.67;;;3.10;;
691;SDS011;70475;50.084;8.576;2023-10-13T13:21:37;6.80;;;3.10;;
691;SDS011;70475;50.084;8.576;2023-10-13T13:24:05;8.40;;;2.53;;
691;SDS011;70475;50.084;8.576;2023-10-13T13:26:37;4.60;;;3.73;;
691;SDS011;70475;50.084;8.576;2023-10-13T13:29:07;5.70;;;3.57;;
691;SDS011;70475;50.084;8.576;2023-10-13T13:31:38;4.13;;;2.90;;
691;SDS011;70475;50.084;8.576;2023-10-13T13:34:10;3.83;;;3.20;;
691;SDS011;70475;50.084;8.576;2023-10-13T13:36:38;8.33;;;3.20;;
691;SDS011;70475;50.084;8.576;2023-10-13T13:39:10;4.17;;;2.63;;
691;SDS011;70475;50.084;8.576;2023-10-13T13:41:38;4.30;;;3.70;;
691;SDS011;70475;50.084;8.576;2023-10-13T13:44:06;4.53;;;3.00;;
691;SDS011;70475;50.084;8.576;2023-10-13T13:46:41;8.23;;;3.10;;
691;SDS011;70475;50.084;8.576;2023-10-13T13:49:09;4.33;;;3.00;;
691;SDS011;70475;50.084;8.576;2023-10-13T13:51:45;5.47;;;3.43;;
691;SDS011;70475;50.084;8.576;2023-10-13T13:54:18;4.63;;;3.17;;
691;SDS011;70475;50.084;8.576;2023-10-13T13:56:46;3.60;;;2.70;;
691;SDS011;70475;50.084;8.576;2023-10-13T13:59:16;4.33;;;2.80;;
691;SDS011;70475;50.084;8.576;2023-10-13T14:01:47;4.03;;;2.80;;
691;SDS011;70475;50.084;8.576;2023-10-13T14:04:15;5.20;;;2.73;;
691;SDS011;70475;50.084;8.576;2023-10-13T14:06:44;3.87;;;2.80;;
691;SDS011;70475;50.084;8.576;2023-10-13T14:09:12;2.90;;;2.50;;
691;SDS011;70475;50.084;8.576;2023-10-13T14:11:58;4.07;;;3.07;;
691;SDS011;70475;50.084;8.576;2023-10-13T14:14:43;3.40;;;2.63;;
691;SDS011;70475;50.084;8.576;2023-10-13T14:17:17;8.10;;;2.73;;
691;SDS011;70475;50.084;8.576;2023-10-13T14:19:45;4.93;;;2.80;;
691;SDS011;70475;50.084;8.576;2023-10-13T14:22:12;5.93;;;2.80;;
691;SDS011;70475;50.084;8.576;2023-10-13T14:24:41;5.60;;;2.73;;
691;SDS011;70475;50.084;8.576;2023-10-13T14:27:14;3.40;;;2.53;;
691;SDS011;70475;50.084;8.576;2023-10-13T14:29:44;6.17;;;2.77;;
691;SDS011;70475;50.084;8.576;2023-10-13T14:32:12;6.37;;;3.83;;
691;SDS011;70475;50.084;8.576;2023-10-13T14:34:44;6.13;;;3.90;;
691;SDS011;70475;50.084;8.576;2023-10-13T14:37:14;4.83;;;2.67;;
691;SDS011;70475;50.084;8.576;2023-10-13T14:39:53;2.50;;;2.00;;
691;SDS011;70475;50.084;8.576;2023-10-13T14:42:23;3.83;;;2.57;;
691;SDS011;70475;50.084;8.576;2023-10-13T14:44:51;4.90;;;3.20;;
691;SDS011;70475;50.084;8.576;2023-10-13T14:47:22;6.23;;;2.80;;
691;SDS011;70475;50.084;8.576;2023-10-13T14:49:54;3.77;;;2.43;;
691;SDS011;70475;50.084;8.576;2023-10-13T14:52:26;4.37;;;2.63;;
691;SDS011;70475;50.084;8.576;2023-10-13T14:54:53;4.10;;;2.53;;
691;SDS011;70475;50.084;8.576;2023-10-13T14:57:22;6.37;;;2.40;;
691;SDS011;70475;50.084;8.576;2023-10-13T14:59:52;3.37;;;2.70;;
691;SDS011;70475;50.084;8.576;2023-10-13T15:02:20;4.20;;;2.73;;
691;SDS011;70475;50.084;8.576;2023-10-13T15:04:48;6.40;;;3.33;;
691;SDS011;70475;50.084;8.576;2023-10-13T15:07:17;5.23;;;3.30;;
691;SDS011;70475;50.084;8.576;2023-10-13T15:09:46;4.07;;;2.60;;
691;SDS011;70475;50.084;8.576;2023-10-13T15:12:13;5.77;;;2.80;;
691;SDS011;70475;50.084;8.576;2023-10-13T15:14:48;8.53;;;2.90;;
691;SDS011;70475;50.084;8.576;2023-10-13T15:17:16;6.90;;;2.33;;
691;SDS011;70475;50.084;8.576;2023-10-13T15:19:44;6.37;;;2.63;;
691;SDS011;70475;50.084;8.576;2023-10-13T15:22:11;3.93;;;2.90;;
691;SDS011;70475;50.084;8.576;2023-10-13T15:24:44;3.87;;;2.90;;
691;SDS011;70475;50.084;8.576;2023-10-13T15:27:23;5.00;;;2.77;;
691;SDS011;70475;50.084;8.576;2023-10-13T15:29:51;9.80;;;2.30;;
691;SDS011;70475;50.084;8.576;2023-10-13T15:32:19;4.20;;;2.43;;
691;SDS011;70475;50.084;8.576;2023-10-13T15:35:04;7.40;;;2.87;;
691;SDS011;70475;50.084;8.576;2023-10-13T15:37:38;3.50;;;2.50;;
691;SDS011;70475;50.084;8.576;2023-10-13T15:40:08;6.37;;;2.33;;
691;SDS011;70475;50.084;8.576;2023-10-13T15:42:41;5.40;;;2.90;;
691;SDS011;70475;50.084;8.576;2023-10-13T15:45:11;8.20;;;2.63;;
691;SDS011;70475;50.084;8.576;2023-10-13T15:47:45;5.70;;;2.80;;
691;SDS011;70475;50.084;8.576;2023-10-13T15:50:16;5.77;;;2.40;;
691;SDS011;70475;50.084;8.576;2023-10-13T15:52:47;5.20;;;2.73;;
691;SDS011;70475;50.084;8.576;2023-10-13T15:55:16;6.30;;;2.83;;
691;SDS011;70475;50.084;8.576;2023-10-13T15:57:44;6.37;;;2.10;;
691;SDS011;70475;50.084;8.576;2023-10-13T16:00:19;6.07;;;2.80;;